Bunker Hill, Kansas
Current Conditions -  °F | °C
As of 6:32 PM on Friday 21 Nov 2014 (Local Time) from KRSL Reporting Station
Overcast Overcast  
Wind Chill: 33°   Ceiling: 1200
Heat Index: 39°   Visibility: 7mi
Dew Point: 35°   Wind: 8mph
Humidity: 86%   Direction: 150°SSE
Pressure: 29.99"   Gusts: NA
Location:  38.88°N, 98.7°W
Report Text: KRSL 220032Z AUTO 15007KT 7SM SCT008 OVC012 04/02 A2999 RMK AO2 T00390017
Loading
Personal Weather Stations






























Interactive Weather Map New forecast layout! Learn more

10-Day Weather Forecast

Advertisements
Track Severe Weather on mobile